sensor_id;sensor_type;location;lat;lon;timestamp;temperature;humidity
11083;DHT22;5595;50.186;8.468;2023-03-19T00:01:46;10.40;99.90
11083;DHT22;5595;50.186;8.468;2023-03-19T00:04:13;10.40;99.90
11083;DHT22;5595;50.186;8.468;2023-03-19T00:06:58;10.40;99.90
11083;DHT22;5595;50.186;8.468;2023-03-19T00:09:26;10.40;99.90
11083;DHT22;5595;50.186;8.468;2023-03-19T00:11:53;10.40;99.90
11083;DHT22;5595;50.186;8.468;2023-03-19T00:14:21;10.40;99.90
11083;DHT22;5595;50.186;8.468;2023-03-19T00:16:48;10.40;99.90
11083;DHT22;5595;50.186;8.468;2023-03-19T00:19:15;10.40;99.90
11083;DHT22;5595;50.186;8.468;2023-03-19T00:21:42;10.40;99.90
11083;DHT22;5595;50.186;8.468;2023-03-19T00:24:10;10.40;99.90
11083;DHT22;5595;50.186;8.468;2023-03-19T00:26:37;10.40;99.90
11083;DHT22;5595;50.186;8.468;2023-03-19T00:29:04;10.40;99.90
11083;DHT22;5595;50.186;8.468;2023-03-19T00:31:31;10.40;99.90
11083;DHT22;5595;50.186;8.468;2023-03-19T00:33:59;10.40;99.90
11083;DHT22;5595;50.186;8.468;2023-03-19T00:36:27;10.40;99.90
11083;DHT22;5595;50.186;8.468;2023-03-19T00:38:54;10.50;99.90
11083;DHT22;5595;50.186;8.468;2023-03-19T00:41:23;10.30;99.90
11083;DHT22;5595;50.186;8.468;2023-03-19T00:43:52;10.50;99.90
11083;DHT22;5595;50.186;8.468;2023-03-19T00:46:19;10.40;99.90
11083;DHT22;5595;50.186;8.468;2023-03-19T00:48:46;10.30;99.90
11083;DHT22;5595;50.186;8.468;2023-03-19T00:51:14;10.50;99.90
11083;DHT22;5595;50.186;8.468;2023-03-19T00:53:42;10.40;99.90
11083;DHT22;5595;50.186;8.468;2023-03-19T00:56:10;10.40;99.90
11083;DHT22;5595;50.186;8.468;2023-03-19T00:58:39;10.50;99.90
11083;DHT22;5595;50.186;8.468;2023-03-19T01:01:06;10.40;99.90
11083;DHT22;5595;50.186;8.468;2023-03-19T01:03:33;10.40;99.90
11083;DHT22;5595;50.186;8.468;2023-03-19T01:06:01;10.40;99.90
11083;DHT22;5595;50.186;8.468;2023-03-19T01:08:28;10.40;99.90
11083;DHT22;5595;50.186;8.468;2023-03-19T01:10:55;10.40;99.90
11083;DHT22;5595;50.186;8.468;2023-03-19T01:13:22;10.50;99.90
11083;DHT22;5595;50.186;8.468;2023-03-19T01:15:51;10.40;99.90
11083;DHT22;5595;50.186;8.468;2023-03-19T01:18:18;10.40;99.90
11083;DHT22;5595;50.186;8.468;2023-03-19T01:20:45;10.30;99.90
11083;DHT22;5595;50.186;8.468;2023-03-19T01:23:12;10.40;99.90
11083;DHT22;5595;50.186;8.468;2023-03-19T01:25:39;10.40;99.90
11083;DHT22;5595;50.186;8.468;2023-03-19T01:28:06;10.30;99.90
11083;DHT22;5595;50.186;8.468;2023-03-19T01:30:33;10.30;99.90
11083;DHT22;5595;50.186;8.468;2023-03-19T01:33:01;10.30;99.90
11083;DHT22;5595;50.186;8.468;2023-03-19T01:35:28;10.20;99.90
11083;DHT22;5595;50.186;8.468;2023-03-19T01:37:55;10.30;99.90
11083;DHT22;5595;50.186;8.468;2023-03-19T01:40:21;10.20;99.90
11083;DHT22;5595;50.186;8.468;2023-03-19T01:42:53;10.10;99.90
11083;DHT22;5595;50.186;8.468;2023-03-19T01:45:33;10.20;99.90
11083;DHT22;5595;50.186;8.468;2023-03-19T01:48:02;10.30;99.90
11083;DHT22;5595;50.186;8.468;2023-03-19T01:50:36;10.20;99.90
11083;DHT22;5595;50.186;8.468;2023-03-19T01:53:04;10.20;99.90
11083;DHT22;5595;50.186;8.468;2023-03-19T01:55:31;10.20;99.90
11083;DHT22;5595;50.186;8.468;2023-03-19T01:57:58;10.10;99.90
11083;DHT22;5595;50.186;8.468;2023-03-19T02:00:26;10.10;99.90
11083;DHT22;5595;50.186;8.468;2023-03-19T02:02:58;10.00;99.90
11083;DHT22;5595;50.186;8.468;2023-03-19T02:05:28;10.00;99.90
11083;DHT22;5595;50.186;8.468;2023-03-19T02:07:58;10.00;99.90
11083;DHT22;5595;50.186;8.468;2023-03-19T02:10:26;9.90;99.90
11083;DHT22;5595;50.186;8.468;2023-03-19T02:12:54;10.00;99.90
11083;DHT22;5595;50.186;8.468;2023-03-19T02:15:21;10.00;99.90
11083;DHT22;5595;50.186;8.468;2023-03-19T02:17:48;10.00;99.90
11083;DHT22;5595;50.186;8.468;2023-03-19T02:20:19;10.00;99.90
11083;DHT22;5595;50.186;8.468;2023-03-19T02:22:59;10.00;99.90
11083;DHT22;5595;50.186;8.468;2023-03-19T02:25:34;10.00;99.90
11083;DHT22;5595;50.186;8.468;2023-03-19T02:28:04;10.00;99.90
11083;DHT22;5595;50.186;8.468;2023-03-19T02:30:34;10.00;99.90
11083;DHT22;5595;50.186;8.468;2023-03-19T02:33:01;10.00;99.90
11083;DHT22;5595;50.186;8.468;2023-03-19T02:35:30;10.00;99.90
11083;DHT22;5595;50.186;8.468;2023-03-19T02:37:59;10.00;99.90
11083;DHT22;5595;50.186;8.468;2023-03-19T02:40:30;10.10;99.90
11083;DHT22;5595;50.186;8.468;2023-03-19T02:43:00;10.10;99.90
11083;DHT22;5595;50.186;8.468;2023-03-19T02:45:29;10.20;99.90
11083;DHT22;5595;50.186;8.468;2023-03-19T02:47:57;10.10;99.90
11083;DHT22;5595;50.186;8.468;2023-03-19T02:50:24;10.20;99.90
11083;DHT22;5595;50.186;8.468;2023-03-19T02:52:53;10.20;99.90
11083;DHT22;5595;50.186;8.468;2023-03-19T02:55:20;10.20;99.90
11083;DHT22;5595;50.186;8.468;2023-03-19T02:57:47;10.20;99.90
11083;DHT22;5595;50.186;8.468;2023-03-19T03:00:16;10.10;99.90
11083;DHT22;5595;50.186;8.468;2023-03-19T03:02:45;10.10;99.90
11083;DHT22;5595;50.186;8.468;2023-03-19T03:05:12;10.10;99.90
11083;DHT22;5595;50.186;8.468;2023-03-19T03:07:39;10.00;99.90
11083;DHT22;5595;50.186;8.468;2023-03-19T03:10:08;10.00;99.90
11083;DHT22;5595;50.186;8.468;2023-03-19T03:12:36;9.90;99.90
11083;DHT22;5595;50.186;8.468;2023-03-19T03:15:03;9.90;99.90
11083;DHT22;5595;50.186;8.468;2023-03-19T03:17:30;9.90;99.90
11083;DHT22;5595;50.186;8.468;2023-03-19T03:19:59;9.80;99.90
11083;DHT22;5595;50.186;8.468;2023-03-19T03:22:26;9.80;99.90
11083;DHT22;5595;50.186;8.468;2023-03-19T03:24:53;9.70;99.90
11083;DHT22;5595;50.186;8.468;2023-03-19T03:27:22;9.70;99.90
11083;DHT22;5595;50.186;8.468;2023-03-19T03:29:49;9.70;99.90
11083;DHT22;5595;50.186;8.468;2023-03-19T03:32:16;9.60;99.90
11083;DHT22;5595;50.186;8.468;2023-03-19T03:34:43;9.60;99.90
11083;DHT22;5595;50.186;8.468;2023-03-19T03:37:12;9.50;99.90
11083;DHT22;5595;50.186;8.468;2023-03-19T03:39:39;9.50;99.90
11083;DHT22;5595;50.186;8.468;2023-03-19T03:42:07;9.40;99.90
11083;DHT22;5595;50.186;8.468;2023-03-19T03:44:34;9.30;99.90
11083;DHT22;5595;50.186;8.468;2023-03-19T03:47:01;9.30;99.90
11083;DHT22;5595;50.186;8.468;2023-03-19T03:49:29;9.20;99.90
11083;DHT22;5595;50.186;8.468;2023-03-19T03:51:56;9.40;99.90
11083;DHT22;5595;50.186;8.468;2023-03-19T03:54:24;9.20;99.90
11083;DHT22;5595;50.186;8.468;2023-03-19T03:56:51;9.20;99.90
11083;DHT22;5595;50.186;8.468;2023-03-19T03:59:18;9.20;99.90
11083;DHT22;5595;50.186;8.468;2023-03-19T04:01:45;9.20;99.90
11083;DHT22;5595;50.186;8.468;2023-03-19T04:04:12;9.30;99.90
11083;DHT22;5595;50.186;8.468;2023-03-19T04:06:38;9.10;99.90
11083;DHT22;5595;50.186;8.468;2023-03-19T04:09:05;9.10;99.90
11083;DHT22;5595;50.186;8.468;2023-03-19T04:11:35;9.10;99.90
11083;DHT22;5595;50.186;8.468;2023-03-19T04:14:02;8.90;99.90
11083;DHT22;5595;50.186;8.468;2023-03-19T04:16:29;9.00;99.90
11083;DHT22;5595;50.186;8.468;2023-03-19T04:18:55;8.80;99.90
11083;DHT22;5595;50.186;8.468;2023-03-19T04:21:22;8.70;99.90
11083;DHT22;5595;50.186;8.468;2023-03-19T04:23:50;8.70;99.90
11083;DHT22;5595;50.186;8.468;2023-03-19T04:26:17;8.60;99.90
11083;DHT22;5595;50.186;8.468;2023-03-19T04:28:46;8.60;99.90
11083;DHT22;5595;50.186;8.468;2023-03-19T04:31:12;8.70;99.90
11083;DHT22;5595;50.186;8.468;2023-03-19T04:33:39;8.60;99.90
11083;DHT22;5595;50.186;8.468;2023-03-19T04:36:07;8.60;99.90
11083;DHT22;5595;50.186;8.468;2023-03-19T04:38:33;8.50;99.90
11083;DHT22;5595;50.186;8.468;2023-03-19T04:41:00;8.50;99.90
11083;DHT22;5595;50.186;8.468;2023-03-19T04:43:28;8.50;99.90
11083;DHT22;5595;50.186;8.468;2023-03-19T04:45:56;8.50;99.90
11083;DHT22;5595;50.186;8.468;2023-03-19T04:48:24;8.40;99.90
11083;DHT22;5595;50.186;8.468;2023-03-19T04:50:51;8.30;99.90
11083;DHT22;5595;50.186;8.468;2023-03-19T04:53:21;8.30;99.90
11083;DHT22;5595;50.186;8.468;2023-03-19T04:55:48;8.40;99.90
11083;DHT22;5595;50.186;8.468;2023-03-19T04:58:15;8.30;99.90
11083;DHT22;5595;50.186;8.468;2023-03-19T05:00:42;8.10;99.90
11083;DHT22;5595;50.186;8.468;2023-03-19T05:03:12;8.10;99.90
11083;DHT22;5595;50.186;8.468;2023-03-19T05:05:39;8.20;99.90
11083;DHT22;5595;50.186;8.468;2023-03-19T05:08:06;8.10;99.90
11083;DHT22;5595;50.186;8.468;2023-03-19T05:10:33;8.10;99.90
11083;DHT22;5595;50.186;8.468;2023-03-19T05:13:01;7.90;99.90
11083;DHT22;5595;50.186;8.468;2023-03-19T05:15:28;7.90;99.90
11083;DHT22;5595;50.186;8.468;2023-03-19T05:17:54;7.80;99.90
11083;DHT22;5595;50.186;8.468;2023-03-19T05:20:23;7.80;99.90
11083;DHT22;5595;50.186;8.468;2023-03-19T05:22:51;7.70;99.90
11083;DHT22;5595;50.186;8.468;2023-03-19T05:25:17;7.70;99.90
11083;DHT22;5595;50.186;8.468;2023-03-19T05:27:45;7.60;99.90
11083;DHT22;5595;50.186;8.468;2023-03-19T05:30:12;7.60;99.90
11083;DHT22;5595;50.186;8.468;2023-03-19T05:32:39;7.60;99.90
11083;DHT22;5595;50.186;8.468;2023-03-19T05:35:06;7.70;99.90
11083;DHT22;5595;50.186;8.468;2023-03-19T05:37:34;7.50;99.90
11083;DHT22;5595;50.186;8.468;2023-03-19T05:40:01;7.50;99.90
11083;DHT22;5595;50.186;8.468;2023-03-19T05:42:28;7.40;99.90
11083;DHT22;5595;50.186;8.468;2023-03-19T05:44:55;7.50;99.90
11083;DHT22;5595;50.186;8.468;2023-03-19T05:47:22;7.50;99.90
11083;DHT22;5595;50.186;8.468;2023-03-19T05:49:49;7.40;99.90
11083;DHT22;5595;50.186;8.468;2023-03-19T05:52:16;7.40;99.90
11083;DHT22;5595;50.186;8.468;2023-03-19T05:54:44;7.50;99.90
11083;DHT22;5595;50.186;8.468;2023-03-19T05:57:14;7.50;99.90
11083;DHT22;5595;50.186;8.468;2023-03-19T05:59:41;7.40;99.90
11083;DHT22;5595;50.186;8.468;2023-03-19T06:02:08;7.40;99.90
11083;DHT22;5595;50.186;8.468;2023-03-19T06:04:35;7.60;99.90
11083;DHT22;5595;50.186;8.468;2023-03-19T06:07:02;7.30;99.90
11083;DHT22;5595;50.186;8.468;2023-03-19T06:09:29;7.30;99.90
11083;DHT22;5595;50.186;8.468;2023-03-19T06:11:57;7.40;99.90
11083;DHT22;5595;50.186;8.468;2023-03-19T06:14:24;7.40;99.90
11083;DHT22;5595;50.186;8.468;2023-03-19T06:16:51;7.50;99.90
11083;DHT22;5595;50.186;8.468;2023-03-19T06:19:18;7.50;99.90
11083;DHT22;5595;50.186;8.468;2023-03-19T06:21:45;7.70;99.90
11083;DHT22;5595;50.186;8.468;2023-03-19T06:24:12;7.70;99.90
11083;DHT22;5595;50.186;8.468;2023-03-19T06:26:39;7.90;99.90
11083;DHT22;5595;50.186;8.468;2023-03-19T06:29:07;7.90;99.90
11083;DHT22;5595;50.186;8.468;2023-03-19T06:31:35;7.90;99.90
11083;DHT22;5595;50.186;8.468;2023-03-19T06:34:03;8.10;99.90
11083;DHT22;5595;50.186;8.468;2023-03-19T06:36:30;8.10;99.90
11083;DHT22;5595;50.186;8.468;2023-03-19T06:38:57;8.20;99.90
11083;DHT22;5595;50.186;8.468;2023-03-19T06:41:24;8.40;99.90
11083;DHT22;5595;50.186;8.468;2023-03-19T06:43:51;8.40;99.90
11083;DHT22;5595;50.186;8.468;2023-03-19T06:46:20;8.50;99.90
11083;DHT22;5595;50.186;8.468;2023-03-19T06:48:46;8.60;99.90
11083;DHT22;5595;50.186;8.468;2023-03-19T06:51:13;8.60;99.90
11083;DHT22;5595;50.186;8.468;2023-03-19T06:53:40;8.80;99.90
11083;DHT22;5595;50.186;8.468;2023-03-19T06:56:07;8.80;99.90
11083;DHT22;5595;50.186;8.468;2023-03-19T06:58:34;8.80;99.90
11083;DHT22;5595;50.186;8.468;2023-03-19T07:01:01;9.00;99.90
11083;DHT22;5595;50.186;8.468;2023-03-19T07:03:30;9.00;99.90
11083;DHT22;5595;50.186;8.468;2023-03-19T07:05:57;9.20;99.90
11083;DHT22;5595;50.186;8.468;2023-03-19T07:08:24;9.30;99.90
11083;DHT22;5595;50.186;8.468;2023-03-19T07:10:54;9.40;99.90
11083;DHT22;5595;50.186;8.468;2023-03-19T07:13:21;9.60;99.90
11083;DHT22;5595;50.186;8.468;2023-03-19T07:15:48;9.70;99.90
11083;DHT22;5595;50.186;8.468;2023-03-19T07:18:14;9.80;99.90
11083;DHT22;5595;50.186;8.468;2023-03-19T07:20:43;9.90;99.90
11083;DHT22;5595;50.186;8.468;2023-03-19T07:23:09;9.90;99.90
11083;DHT22;5595;50.186;8.468;2023-03-19T07:25:36;10.00;99.90
11083;DHT22;5595;50.186;8.468;2023-03-19T07:28:03;10.00;99.90
11083;DHT22;5595;50.186;8.468;2023-03-19T07:30:30;10.10;99.90
11083;DHT22;5595;50.186;8.468;2023-03-19T07:32:57;10.10;99.90
11083;DHT22;5595;50.186;8.468;2023-03-19T07:35:24;10.20;99.90
11083;DHT22;5595;50.186;8.468;2023-03-19T07:37:52;10.20;99.90
11083;DHT22;5595;50.186;8.468;2023-03-19T07:40:19;10.20;99.90
11083;DHT22;5595;50.186;8.468;2023-03-19T07:42:46;10.20;99.90
11083;DHT22;5595;50.186;8.468;2023-03-19T07:45:15;10.30;99.90
11083;DHT22;5595;50.186;8.468;2023-03-19T07:47:42;10.30;99.90
11083;DHT22;5595;50.186;8.468;2023-03-19T07:50:09;10.30;99.90
11083;DHT22;5595;50.186;8.468;2023-03-19T07:52:36;10.40;99.90
11083;DHT22;5595;50.186;8.468;2023-03-19T07:55:06;10.60;99.90
11083;DHT22;5595;50.186;8.468;2023-03-19T07:57:33;10.60;99.90
11083;DHT22;5595;50.186;8.468;2023-03-19T08:00:00;10.90;99.90
11083;DHT22;5595;50.186;8.468;2023-03-19T08:02:27;11.00;99.90
11083;DHT22;5595;50.186;8.468;2023-03-19T08:04:54;11.20;99.90
11083;DHT22;5595;50.186;8.468;2023-03-19T08:07:21;11.30;99.90
11083;DHT22;5595;50.186;8.468;2023-03-19T08:09:48;11.50;99.90
11083;DHT22;5595;50.186;8.468;2023-03-19T08:12:16;11.50;99.90
11083;DHT22;5595;50.186;8.468;2023-03-19T08:14:43;11.70;99.90
11083;DHT22;5595;50.186;8.468;2023-03-19T08:17:12;11.90;99.90
11083;DHT22;5595;50.186;8.468;2023-03-19T08:19:39;12.00;99.90
11083;DHT22;5595;50.186;8.468;2023-03-19T08:22:06;12.10;99.90
11083;DHT22;5595;50.186;8.468;2023-03-19T08:24:33;12.20;99.90
11083;DHT22;5595;50.186;8.468;2023-03-19T08:27:00;12.20;99.90
11083;DHT22;5595;50.186;8.468;2023-03-19T08:29:28;12.20;99.90
11083;DHT22;5595;50.186;8.468;2023-03-19T08:31:55;12.20;99.90
11083;DHT22;5595;50.186;8.468;2023-03-19T08:34:23;12.20;99.90
11083;DHT22;5595;50.186;8.468;2023-03-19T08:36:51;12.10;99.90
11083;DHT22;5595;50.186;8.468;2023-03-19T08:39:18;12.30;99.90
11083;DHT22;5595;50.186;8.468;2023-03-19T08:41:45;12.30;99.90
11083;DHT22;5595;50.186;8.468;2023-03-19T08:44:12;12.40;99.90
11083;DHT22;5595;50.186;8.468;2023-03-19T08:46:40;12.60;99.90
11083;DHT22;5595;50.186;8.468;2023-03-19T08:49:07;12.60;99.90
11083;DHT22;5595;50.186;8.468;2023-03-19T08:51:34;12.70;99.90
11083;DHT22;5595;50.186;8.468;2023-03-19T08:54:01;12.80;99.90
11083;DHT22;5595;50.186;8.468;2023-03-19T08:56:28;12.90;99.90
11083;DHT22;5595;50.186;8.468;2023-03-19T08:58:55;12.90;99.90
11083;DHT22;5595;50.186;8.468;2023-03-19T09:01:22;13.00;99.90
11083;DHT22;5595;50.186;8.468;2023-03-19T09:03:50;13.10;99.90
11083;DHT22;5595;50.186;8.468;2023-03-19T09:06:17;13.30;99.90
11083;DHT22;5595;50.186;8.468;2023-03-19T09:08:44;13.40;99.90
11083;DHT22;5595;50.186;8.468;2023-03-19T09:11:11;13.50;99.90
11083;DHT22;5595;50.186;8.468;2023-03-19T09:13:39;13.60;99.90
11083;DHT22;5595;50.186;8.468;2023-03-19T09:16:06;13.80;99.90
11083;DHT22;5595;50.186;8.468;2023-03-19T09:18:33;14.00;99.90
11083;DHT22;5595;50.186;8.468;2023-03-19T09:21:02;14.00;99.90
11083;DHT22;5595;50.186;8.468;2023-03-19T09:23:29;14.20;99.90
11083;DHT22;5595;50.186;8.468;2023-03-19T09:25:56;14.30;99.90
11083;DHT22;5595;50.186;8.468;2023-03-19T09:28:23;14.50;99.90
11083;DHT22;5595;50.186;8.468;2023-03-19T09:30:50;14.60;99.90
11083;DHT22;5595;50.186;8.468;2023-03-19T09:33:18;14.60;99.90
11083;DHT22;5595;50.186;8.468;2023-03-19T09:35:49;14.70;99.90
11083;DHT22;5595;50.186;8.468;2023-03-19T09:38:18;14.90;99.90
11083;DHT22;5595;50.186;8.468;2023-03-19T09:40:48;14.80;99.90
11083;DHT22;5595;50.186;8.468;2023-03-19T09:43:38;14.90;99.90
11083;DHT22;5595;50.186;8.468;2023-03-19T09:46:11;15.00;99.90
11083;DHT22;5595;50.186;8.468;2023-03-19T09:48:42;15.20;99.90
11083;DHT22;5595;50.186;8.468;2023-03-19T09:51:17;15.20;99.90
11083;DHT22;5595;50.186;8.468;2023-03-19T09:53:49;15.30;99.90
11083;DHT22;5595;50.186;8.468;2023-03-19T09:56:18;15.50;99.90
11083;DHT22;5595;50.186;8.468;2023-03-19T09:58:45;15.60;99.90
11083;DHT22;5595;50.186;8.468;2023-03-19T10:01:22;15.60;99.90
11083;DHT22;5595;50.186;8.468;2023-03-19T10:04:04;15.60;99.90
11083;DHT22;5595;50.186;8.468;2023-03-19T10:06:34;15.60;99.90
11083;DHT22;5595;50.186;8.468;2023-03-19T10:09:24;15.60;99.90
11083;DHT22;5595;50.186;8.468;2023-03-19T10:12:15;15.60;99.90
11083;DHT22;5595;50.186;8.468;2023-03-19T10:15:03;15.60;99.90
11083;DHT22;5595;50.186;8.468;2023-03-19T10:17:38;15.70;99.90
11083;DHT22;5595;50.186;8.468;2023-03-19T10:20:09;15.80;99.90
11083;DHT22;5595;50.186;8.468;2023-03-19T10:22:45;16.00;99.90
11083;DHT22;5595;50.186;8.468;2023-03-19T10:25:19;16.10;99.90
11083;DHT22;5595;50.186;8.468;2023-03-19T10:27:53;16.10;99.90
11083;DHT22;5595;50.186;8.468;2023-03-19T10:30:21;16.10;99.90
11083;DHT22;5595;50.186;8.468;2023-03-19T10:32:52;16.00;99.90
11083;DHT22;5595;50.186;8.468;2023-03-19T10:35:24;16.00;99.90
11083;DHT22;5595;50.186;8.468;2023-03-19T10:37:53;15.90;99.90
11083;DHT22;5595;50.186;8.468;2023-03-19T10:40:26;15.70;99.90
11083;DHT22;5595;50.186;8.468;2023-03-19T10:43:04;15.80;99.90
11083;DHT22;5595;50.186;8.468;2023-03-19T10:45:33;15.70;99.90
11083;DHT22;5595;50.186;8.468;2023-03-19T10:48:03;15.70;99.90
11083;DHT22;5595;50.186;8.468;2023-03-19T10:50:33;15.80;99.90
11083;DHT22;5595;50.186;8.468;2023-03-19T10:53:05;15.80;99.90
11083;DHT22;5595;50.186;8.468;2023-03-19T10:55:34;15.90;99.90
11083;DHT22;5595;50.186;8.468;2023-03-19T10:58:03;15.80;99.90
11083;DHT22;5595;50.186;8.468;2023-03-19T11:00:31;15.60;99.90
11083;DHT22;5595;50.186;8.468;2023-03-19T11:03:00;15.60;99.90
11083;DHT22;5595;50.186;8.468;2023-03-19T11:05:30;15.50;99.90
11083;DHT22;5595;50.186;8.468;2023-03-19T11:08:00;15.30;99.90
11083;DHT22;5595;50.186;8.468;2023-03-19T11:10:28;15.20;99.90
11083;DHT22;5595;50.186;8.468;2023-03-19T11:12:59;15.10;99.90
11083;DHT22;5595;50.186;8.468;2023-03-19T11:15:31;15.00;99.90
11083;DHT22;5595;50.186;8.468;2023-03-19T11:18:05;14.80;99.90
11083;DHT22;5595;50.186;8.468;2023-03-19T11:20:34;14.70;99.90
11083;DHT22;5595;50.186;8.468;2023-03-19T11:23:05;14.60;99.90
11083;DHT22;5595;50.186;8.468;2023-03-19T11:25:36;14.60;99.90
11083;DHT22;5595;50.186;8.468;2023-03-19T11:28:07;14.60;99.90
11083;DHT22;5595;50.186;8.468;2023-03-19T11:30:42;14.60;99.90
11083;DHT22;5595;50.186;8.468;2023-03-19T11:33:37;14.60;99.90
11083;DHT22;5595;50.186;8.468;2023-03-19T11:36:11;14.80;99.90
11083;DHT22;5595;50.186;8.468;2023-03-19T11:38:49;15.00;99.90
11083;DHT22;5595;50.186;8.468;2023-03-19T11:41:25;15.30;99.90
11083;DHT22;5595;50.186;8.468;2023-03-19T11:43:58;15.60;99.90
11083;DHT22;5595;50.186;8.468;2023-03-19T11:46:43;15.50;99.90
11083;DHT22;5595;50.186;8.468;2023-03-19T11:49:29;15.40;99.90
11083;DHT22;5595;50.186;8.468;2023-03-19T11:52:04;15.40;99.90
11083;DHT22;5595;50.186;8.468;2023-03-19T11:54:41;15.30;99.90
11083;DHT22;5595;50.186;8.468;2023-03-19T11:57:13;15.30;99.90
11083;DHT22;5595;50.186;8.468;2023-03-19T11:59:57;15.30;99.90
11083;DHT22;5595;50.186;8.468;2023-03-19T12:03:10;15.30;99.90
11083;DHT22;5595;50.186;8.468;2023-03-19T12:05:48;15.50;99.90
11083;DHT22;5595;50.186;8.468;2023-03-19T12:08:28;15.80;99.90
11083;DHT22;5595;50.186;8.468;2023-03-19T12:11:02;16.30;99.90
11083;DHT22;5595;50.186;8.468;2023-03-19T12:13:40;16.60;99.90
11083;DHT22;5595;50.186;8.468;2023-03-19T12:16:19;16.80;99.90
11083;DHT22;5595;50.186;8.468;2023-03-19T12:19:08;17.00;99.90
11083;DHT22;5595;50.186;8.468;2023-03-19T12:21:57;17.10;99.90
11083;DHT22;5595;50.186;8.468;2023-03-19T12:24:33;17.00;99.90
11083;DHT22;5595;50.186;8.468;2023-03-19T12:27:18;17.10;99.90
11083;DHT22;5595;50.186;8.468;2023-03-19T12:29:53;17.00;99.90
11083;DHT22;5595;50.186;8.468;2023-03-19T12:32:39;16.80;99.90
11083;DHT22;5595;50.186;8.468;2023-03-19T12:35:13;16.30;99.90
11083;DHT22;5595;50.186;8.468;2023-03-19T12:37:45;16.00;99.90
11083;DHT22;5595;50.186;8.468;2023-03-19T12:40:25;15.90;99.90
11083;DHT22;5595;50.186;8.468;2023-03-19T12:42:55;15.60;99.90
11083;DHT22;5595;50.186;8.468;2023-03-19T12:45:27;15.40;99.90
11083;DHT22;5595;50.186;8.468;2023-03-19T12:48:01;15.40;99.90
11083;DHT22;5595;50.186;8.468;2023-03-19T12:50:31;15.40;99.90
11083;DHT22;5595;50.186;8.468;2023-03-19T12:53:00;15.60;99.90
11083;DHT22;5595;50.186;8.468;2023-03-19T12:55:36;15.70;99.90
11083;DHT22;5595;50.186;8.468;2023-03-19T12:58:07;15.60;99.90
11083;DHT22;5595;50.186;8.468;2023-03-19T13:00:41;15.60;99.90
11083;DHT22;5595;50.186;8.468;2023-03-19T13:03:14;15.60;99.90
11083;DHT22;5595;50.186;8.468;2023-03-19T13:05:46;15.60;99.90
11083;DHT22;5595;50.186;8.468;2023-03-19T13:08:18;15.50;99.90
11083;DHT22;5595;50.186;8.468;2023-03-19T13:10:45;15.50;99.90
11083;DHT22;5595;50.186;8.468;2023-03-19T13:13:33;15.30;99.90
11083;DHT22;5595;50.186;8.468;2023-03-19T13:16:08;15.20;99.90
11083;DHT22;5595;50.186;8.468;2023-03-19T13:18:42;15.00;99.90
11083;DHT22;5595;50.186;8.468;2023-03-19T13:21:20;14.80;99.90
11083;DHT22;5595;50.186;8.468;2023-03-19T13:23:50;14.60;99.90
11083;DHT22;5595;50.186;8.468;2023-03-19T13:26:25;14.40;99.90
11083;DHT22;5595;50.186;8.468;2023-03-19T13:28:55;14.20;99.90
11083;DHT22;5595;50.186;8.468;2023-03-19T13:31:25;14.10;99.90
11083;DHT22;5595;50.186;8.468;2023-03-19T13:34:00;14.10;99.90
11083;DHT22;5595;50.186;8.468;2023-03-19T13:36:28;14.20;99.90
11083;DHT22;5595;50.186;8.468;2023-03-19T13:38:57;14.40;99.90
11083;DHT22;5595;50.186;8.468;2023-03-19T13:41:50;14.50;99.90
11083;DHT22;5595;50.186;8.468;2023-03-19T13:44:28;14.60;99.90
11083;DHT22;5595;50.186;8.468;2023-03-19T13:47:00;14.70;99.90
11083;DHT22;5595;50.186;8.468;2023-03-19T13:49:33;14.60;99.90
11083;DHT22;5595;50.186;8.468;2023-03-19T13:54:52;14.80;99.90
11083;DHT22;5595;50.186;8.468;2023-03-19T13:57:32;14.80;99.90
11083;DHT22;5595;50.186;8.468;2023-03-19T14:00:52;14.80;99.90
11083;DHT22;5595;50.186;8.468;2023-03-19T14:03:23;14.80;99.90
11083;DHT22;5595;50.186;8.468;2023-03-19T14:05:53;14.70;99.90
11083;DHT22;5595;50.186;8.468;2023-03-19T14:08:23;14.80;99.90
11083;DHT22;5595;50.186;8.468;2023-03-19T14:10:53;14.80;99.90
11083;DHT22;5595;50.186;8.468;2023-03-19T14:13:28;14.70;99.90
11083;DHT22;5595;50.186;8.468;2023-03-19T14:16:04;14.70;99.90
11083;DHT22;5595;50.186;8.468;2023-03-19T14:18:32;14.60;99.90
11083;DHT22;5595;50.186;8.468;2023-03-19T14:21:04;14.60;99.90
11083;DHT22;5595;50.186;8.468;2023-03-19T14:23:31;14.50;99.90
11083;DHT22;5595;50.186;8.468;2023-03-19T14:26:07;14.50;99.90
11083;DHT22;5595;50.186;8.468;2023-03-19T14:28:51;14.50;99.90
11083;DHT22;5595;50.186;8.468;2023-03-19T14:31:32;14.40;99.90
11083;DHT22;5595;50.186;8.468;2023-03-19T14:34:19;14.40;99.90
11083;DHT22;5595;50.186;8.468;2023-03-19T14:36:53;14.50;99.90
11083;DHT22;5595;50.186;8.468;2023-03-19T14:39:23;14.60;99.90
11083;DHT22;5595;50.186;8.468;2023-03-19T14:41:59;14.70;99.90
11083;DHT22;5595;50.186;8.468;2023-03-19T14:45:00;15.00;99.90
11083;DHT22;5595;50.186;8.468;2023-03-19T14:47:54;15.00;99.90
11083;DHT22;5595;50.186;8.468;2023-03-19T14:50:44;15.00;99.90
11083;DHT22;5595;50.186;8.468;2023-03-19T14:53:21;15.00;99.90
11083;DHT22;5595;50.186;8.468;2023-03-19T14:55:51;14.90;99.90
11083;DHT22;5595;50.186;8.468;2023-03-19T14:58:19;14.90;99.90
11083;DHT22;5595;50.186;8.468;2023-03-19T15:00:48;14.90;99.90
11083;DHT22;5595;50.186;8.468;2023-03-19T15:03:22;14.90;99.90
11083;DHT22;5595;50.186;8.468;2023-03-19T15:05:56;15.00;99.90
11083;DHT22;5595;50.186;8.468;2023-03-19T15:08:25;15.10;99.90
11083;DHT22;5595;50.186;8.468;2023-03-19T15:11:09;15.00;99.90
11083;DHT22;5595;50.186;8.468;2023-03-19T15:13:50;15.10;99.90
11083;DHT22;5595;50.186;8.468;2023-03-19T15:16:30;15.10;99.90
11083;DHT22;5595;50.186;8.468;2023-03-19T15:18:59;15.20;99.90
11083;DHT22;5595;50.186;8.468;2023-03-19T15:21:28;15.30;99.90
11083;DHT22;5595;50.186;8.468;2023-03-19T15:23:56;15.30;99.90
11083;DHT22;5595;50.186;8.468;2023-03-19T15:26:31;15.20;99.90
11083;DHT22;5595;50.186;8.468;2023-03-19T15:28:59;15.10;99.90
11083;DHT22;5595;50.186;8.468;2023-03-19T15:31:40;15.00;99.90
11083;DHT22;5595;50.186;8.468;2023-03-19T15:34:23;15.10;99.90
11083;DHT22;5595;50.186;8.468;2023-03-19T15:36:52;15.30;99.90
11083;DHT22;5595;50.186;8.468;2023-03-19T15:39:28;15.00;99.90
11083;DHT22;5595;50.186;8.468;2023-03-19T15:41:57;14.90;99.90
11083;DHT22;5595;50.186;8.468;2023-03-19T15:44:30;14.80;99.90
11083;DHT22;5595;50.186;8.468;2023-03-19T15:47:01;14.70;99.90
11083;DHT22;5595;50.186;8.468;2023-03-19T15:49:31;14.40;99.90
11083;DHT22;5595;50.186;8.468;2023-03-19T15:52:02;14.30;99.90
11083;DHT22;5595;50.186;8.468;2023-03-19T15:54:33;14.20;99.90
11083;DHT22;5595;50.186;8.468;2023-03-19T15:56:59;14.00;99.90
11083;DHT22;5595;50.186;8.468;2023-03-19T15:59:28;13.90;99.90
11083;DHT22;5595;50.186;8.468;2023-03-19T16:01:57;13.80;99.90
11083;DHT22;5595;50.186;8.468;2023-03-19T16:04:26;13.70;99.90
11083;DHT22;5595;50.186;8.468;2023-03-19T16:06:56;13.80;99.90
11083;DHT22;5595;50.186;8.468;2023-03-19T16:09:25;13.90;99.90
11083;DHT22;5595;50.186;8.468;2023-03-19T16:11:54;13.70;99.90
11083;DHT22;5595;50.186;8.468;2023-03-19T16:14:24;13.60;99.90